createdAt,value
2022-08-17T00:02:26.755Z,99.90
2022-08-17T00:04:55.204Z,99.90
2022-08-17T00:07:23.043Z,99.90
2022-08-17T00:09:50.247Z,99.90
2022-08-17T00:12:40.511Z,99.90
2022-08-17T00:15:06.277Z,99.90
2022-08-17T00:17:37.352Z,99.90
2022-08-17T00:20:05.009Z,99.90
2022-08-17T00:22:36.410Z,99.90
2022-08-17T00:27:34.211Z,99.90
2022-08-17T00:30:01.095Z,99.90
2022-08-17T00:33:13.692Z,99.90
2022-08-17T00:35:17.776Z,99.90
2022-08-17T00:37:44.712Z,99.90
2022-08-17T00:40:14.676Z,99.90
2022-08-17T00:42:43.019Z,99.90
2022-08-17T00:45:11.897Z,99.90
2022-08-17T00:47:39.001Z,99.90
2022-08-17T00:50:09.631Z,99.90
2022-08-17T00:52:43.486Z,99.90
2022-08-17T00:55:11.494Z,99.90
2022-08-17T00:57:46.062Z,99.90
2022-08-17T01:00:19.644Z,99.90
2022-08-17T01:02:48.171Z,99.90
2022-08-17T01:05:20.019Z,99.90
2022-08-17T01:07:51.036Z,99.90
2022-08-17T01:10:58.384Z,99.90
2022-08-17T01:13:24.223Z,99.90
2022-08-17T01:15:57.431Z,99.90
2022-08-17T01:18:26.387Z,99.90
2022-08-17T01:20:55.923Z,99.90
2022-08-17T01:23:25.225Z,99.90
2022-08-17T01:25:57.225Z,99.90
2022-08-17T01:28:52.832Z,99.90
2022-08-17T01:31:14.302Z,99.90
2022-08-17T01:33:41.271Z,99.90
2022-08-17T01:36:08.963Z,99.90
2022-08-17T01:38:37.975Z,99.90
2022-08-17T01:41:13.312Z,99.90
2022-08-17T01:43:45.763Z,99.90
2022-08-17T01:46:21.155Z,99.90
2022-08-17T01:48:48.533Z,99.90
2022-08-17T01:51:16.189Z,99.90
2022-08-17T01:53:49.078Z,99.90
2022-08-17T01:56:19.633Z,99.90
2022-08-17T01:58:47.199Z,99.90
2022-08-17T02:01:17.251Z,99.90
2022-08-17T02:03:53.142Z,99.90
2022-08-17T02:06:27.802Z,99.90
2022-08-17T02:09:01.922Z,99.90
2022-08-17T02:11:33.143Z,99.90
2022-08-17T02:14:02.753Z,99.90
2022-08-17T02:16:36.664Z,99.90
2022-08-17T02:19:06.529Z,99.90
2022-08-17T02:21:34.141Z,99.90
2022-08-17T02:24:01.373Z,99.90
2022-08-17T02:26:28.334Z,99.90
2022-08-17T02:28:55.812Z,99.90
2022-08-17T02:31:22.768Z,99.90
2022-08-17T02:33:56.840Z,99.90
2022-08-17T02:36:30.496Z,99.90
2022-08-17T02:38:58.929Z,99.90
2022-08-17T02:41:25.907Z,99.90
2022-08-17T02:43:53.657Z,99.90
2022-08-17T02:46:20.646Z,99.90
2022-08-17T02:48:47.631Z,99.90
2022-08-17T02:51:14.815Z,99.90
2022-08-17T02:53:41.726Z,99.90
2022-08-17T02:56:08.694Z,99.90
2022-08-17T02:58:36.241Z,99.90
2022-08-17T03:01:07.888Z,99.90
2022-08-17T03:03:36.750Z,99.90
2022-08-17T03:06:05.318Z,99.90
2022-08-17T03:08:32.245Z,99.90
2022-08-17T03:10:59.188Z,99.90
2022-08-17T03:13:27.304Z,99.90
2022-08-17T03:15:54.321Z,99.90
2022-08-17T03:18:25.295Z,99.90
2022-08-17T03:20:58.946Z,99.90
2022-08-17T03:23:27.196Z,99.90
2022-08-17T03:25:55.316Z,99.90
2022-08-17T03:28:23.511Z,99.90
2022-08-17T03:30:51.628Z,99.90
2022-08-17T03:33:20.883Z,99.90
2022-08-17T03:35:48.648Z,99.90
2022-08-17T03:38:17.431Z,99.90
2022-08-17T03:40:57.287Z,99.90
2022-08-17T03:43:38.675Z,99.90
2022-08-17T03:46:28.508Z,99.90
2022-08-17T03:49:22.110Z,99.90
2022-08-17T03:52:07.448Z,99.90
2022-08-17T03:54:52.705Z,99.90
2022-08-17T03:57:19.702Z,99.90
2022-08-17T03:59:46.887Z,99.90
2022-08-17T04:02:19.875Z,99.90
2022-08-17T04:04:47.278Z,99.90
2022-08-17T04:07:14.369Z,99.90
2022-08-17T04:09:43.030Z,99.90
2022-08-17T04:12:10.180Z,99.90
2022-08-17T04:14:53.224Z,99.90
2022-08-17T04:17:27.232Z,99.90
2022-08-17T04:19:55.562Z,99.90
2022-08-17T04:22:33.292Z,99.90
2022-08-17T04:25:05.253Z,99.90
2022-08-17T04:27:32.691Z,99.90
2022-08-17T04:29:59.891Z,99.90
2022-08-17T04:33:04.552Z,99.90
2022-08-17T04:35:23.300Z,99.90
2022-08-17T04:37:51.192Z,99.90
2022-08-17T04:40:38.217Z,99.90
2022-08-17T04:43:18.825Z,99.90
2022-08-17T04:45:56.120Z,99.90
2022-08-17T04:48:36.690Z,99.90
2022-08-17T04:51:14.645Z,99.90
2022-08-17T04:53:45.307Z,99.90
2022-08-17T04:56:19.132Z,99.90
2022-08-17T04:58:48.420Z,99.90
2022-08-17T05:01:17.497Z,99.90
2022-08-17T05:03:50.651Z,99.90
2022-08-17T05:06:17.576Z,99.90
2022-08-17T05:08:44.495Z,99.90
2022-08-17T05:11:11.470Z,99.90
2022-08-17T05:13:38.427Z,99.90
2022-08-17T05:16:06.057Z,99.90
2022-08-17T05:18:33.228Z,99.90
2022-08-17T05:21:00.237Z,99.90
2022-08-17T05:23:35.532Z,99.90
2022-08-17T05:26:11.618Z,99.90
2022-08-17T05:28:52.843Z,99.90
2022-08-17T05:31:21.419Z,99.90
2022-08-17T05:33:49.584Z,99.90
2022-08-17T05:36:42.300Z,99.90
2022-08-17T05:39:04.066Z,99.90
2022-08-17T05:41:31.003Z,99.90
2022-08-17T05:43:57.920Z,99.90
2022-08-17T05:46:31.374Z,99.90
2022-08-17T05:49:03.770Z,99.90
2022-08-17T05:51:43.019Z,99.90
2022-08-17T05:54:30.179Z,99.90
2022-08-17T05:56:57.044Z,99.90
2022-08-17T05:59:37.849Z,99.90
2022-08-17T06:02:47.051Z,99.90
2022-08-17T06:05:27.120Z,99.90
2022-08-17T06:08:09.992Z,99.90
2022-08-17T06:11:07.582Z,99.90
2022-08-17T06:14:06.754Z,99.90
2022-08-17T06:16:44.414Z,99.90
2022-08-17T06:19:25.645Z,99.90
2022-08-17T06:21:54.974Z,99.90
2022-08-17T06:24:36.890Z,99.90
2022-08-17T06:27:27.672Z,99.90
2022-08-17T06:30:17.891Z,99.90
2022-08-17T06:32:48.357Z,99.90
2022-08-17T06:35:31.800Z,99.90
2022-08-17T06:38:09.527Z,99.90
2022-08-17T06:41:26.874Z,99.90
2022-08-17T06:44:11.681Z,99.90
2022-08-17T06:47:28.595Z,99.90
2022-08-17T06:50:15.601Z,99.90
2022-08-17T06:52:59.878Z,99.90
2022-08-17T06:55:38.039Z,99.90
2022-08-17T06:58:15.923Z,99.90
2022-08-17T07:00:47.187Z,99.90
2022-08-17T07:03:32.008Z,99.90
2022-08-17T07:06:05.650Z,99.90
2022-08-17T07:08:45.225Z,99.90
2022-08-17T07:11:16.385Z,99.90
2022-08-17T07:13:55.397Z,99.90
2022-08-17T07:16:36.373Z,99.90
2022-08-17T07:19:06.114Z,99.90
2022-08-17T07:21:57.620Z,99.90
2022-08-17T07:24:26.358Z,99.90
2022-08-17T07:27:21.429Z,99.90
2022-08-17T07:29:53.819Z,99.90
2022-08-17T07:32:26.449Z,99.90
2022-08-17T07:35:04.678Z,99.90
2022-08-17T07:37:33.410Z,99.90
2022-08-17T07:40:16.957Z,99.90
2022-08-17T07:43:09.365Z,99.90
2022-08-17T07:46:35.288Z,99.90
2022-08-17T07:49:08.140Z,99.90
2022-08-17T07:51:52.802Z,99.90
2022-08-17T07:54:24.141Z,99.90
2022-08-17T07:56:52.592Z,99.90
2022-08-17T07:59:27.187Z,99.90
2022-08-17T08:02:07.193Z,99.90
2022-08-17T08:04:59.599Z,99.90
2022-08-17T08:07:34.869Z,99.90
2022-08-17T08:10:23.255Z,99.90
2022-08-17T08:13:12.298Z,99.90
2022-08-17T08:15:53.474Z,99.90
2022-08-17T08:18:54.862Z,99.90
2022-08-17T08:21:42.716Z,99.90
2022-08-17T08:24:18.752Z,99.90
2022-08-17T08:27:01.019Z,99.90
2022-08-17T08:29:40.590Z,99.90
2022-08-17T08:32:22.586Z,99.90
2022-08-17T08:35:13.279Z,99.90
2022-08-17T08:37:49.977Z,99.90
2022-08-17T08:40:56.441Z,99.90
2022-08-17T08:43:52.807Z,99.90
2022-08-17T08:46:29.046Z,99.90
2022-08-17T08:49:18.925Z,99.90
2022-08-17T08:51:58.071Z,99.90
2022-08-17T08:54:55.184Z,99.90
2022-08-17T08:57:34.628Z,99.90
2022-08-17T09:00:21.486Z,99.90
2022-08-17T09:03:17.469Z,99.90
2022-08-17T09:05:48.404Z,99.90
2022-08-17T09:08:52.091Z,99.90
2022-08-17T09:12:02.963Z,99.90
2022-08-17T09:14:46.442Z,99.90
2022-08-17T09:17:16.418Z,99.90
2022-08-17T09:20:00.021Z,99.90
2022-08-17T09:22:38.569Z,99.90
2022-08-17T09:25:16.156Z,99.90
2022-08-17T09:27:53.676Z,99.90
2022-08-17T09:30:22.003Z,99.90
2022-08-17T09:32:56.438Z,99.90
2022-08-17T09:35:42.432Z,99.90
2022-08-17T09:38:32.172Z,99.90
2022-08-17T09:41:28.250Z,99.90
2022-08-17T09:44:14.016Z,99.90
2022-08-17T09:47:11.279Z,99.90
2022-08-17T09:49:56.825Z,99.90
2022-08-17T09:52:27.507Z,99.90
2022-08-17T09:54:56.925Z,99.90
2022-08-17T09:57:32.319Z,99.90
2022-08-17T10:00:16.575Z,99.90
2022-08-17T10:03:10.145Z,99.90
2022-08-17T10:05:48.538Z,99.90
2022-08-17T10:08:41.650Z,99.90
2022-08-17T10:11:16.943Z,99.90
2022-08-17T10:13:59.524Z,99.90
2022-08-17T10:16:32.397Z,99.90
2022-08-17T10:19:21.358Z,99.90
2022-08-17T10:22:14.999Z,99.90
2022-08-17T10:25:22.793Z,99.90
2022-08-17T10:28:12.952Z,99.90
2022-08-17T10:30:51.740Z,99.90
2022-08-17T10:33:27.351Z,99.90
2022-08-17T10:36:01.405Z,99.90
2022-08-17T10:38:57.247Z,99.90
2022-08-17T10:41:30.173Z,99.80
2022-08-17T10:44:37.906Z,99.90
2022-08-17T10:47:15.041Z,98.80
2022-08-17T10:49:54.074Z,99.70
2022-08-17T10:52:24.819Z,99.90
2022-08-17T10:54:58.558Z,99.90
2022-08-17T10:57:36.515Z,99.90
2022-08-17T11:00:14.880Z,99.90
2022-08-17T11:02:54.679Z,99.90
2022-08-17T11:05:33.657Z,99.90
2022-08-17T11:08:22.407Z,99.90
2022-08-17T11:10:58.433Z,99.90
2022-08-17T11:13:34.339Z,99.90
2022-08-17T11:16:24.995Z,99.90
2022-08-17T11:19:10.446Z,99.90
2022-08-17T11:21:50.946Z,99.90
2022-08-17T11:24:33.696Z,99.90
2022-08-17T11:27:26.697Z,99.90
2022-08-17T11:30:01.477Z,99.90
2022-08-17T11:32:47.350Z,98.50
2022-08-17T11:35:31.487Z,99.00
2022-08-17T11:38:16.445Z,99.50
2022-08-17T11:41:03.529Z,99.40
2022-08-17T11:43:55.686Z,99.30
2022-08-17T11:47:10.488Z,97.20
2022-08-17T11:50:30.598Z,98.30
2022-08-17T11:52:57.588Z,98.90
2022-08-17T11:55:37.516Z,97.20
2022-08-17T11:58:26.235Z,96.90
2022-08-17T12:00:59.695Z,97.40
2022-08-17T12:03:33.035Z,97.30
2022-08-17T12:06:11.142Z,95.60
2022-08-17T12:08:45.479Z,96.10
2022-08-17T12:11:56.305Z,96.00
2022-08-17T12:14:10.056Z,97.70
2022-08-17T12:16:42.717Z,96.70
2022-08-17T12:19:19.442Z,97.00
2022-08-17T12:21:54.282Z,97.20
2022-08-17T12:24:45.411Z,95.40
2022-08-17T12:27:19.522Z,95.90
2022-08-17T12:30:12.175Z,94.40
2022-08-17T12:32:40.695Z,93.80
2022-08-17T12:35:21.662Z,93.80
2022-08-17T12:37:50.546Z,93.40
2022-08-17T12:40:22.681Z,93.90
2022-08-17T12:43:06.692Z,93.90
2022-08-17T12:45:39.298Z,91.50
2022-08-17T12:48:10.200Z,92.50
2022-08-17T12:50:45.932Z,91.80
2022-08-17T12:53:22.384Z,92.20
2022-08-17T12:55:51.511Z,93.50
2022-08-17T12:58:22.205Z,92.20
2022-08-17T13:00:56.881Z,93.00
2022-08-17T13:03:26.509Z,93.30
2022-08-17T13:05:56.432Z,92.80
2022-08-17T13:08:29.415Z,92.90
2022-08-17T13:11:09.865Z,92.40
2022-08-17T13:13:39.152Z,94.20
2022-08-17T13:16:12.064Z,94.10
2022-08-17T13:18:52.959Z,95.00
2022-08-17T13:21:27.675Z,93.50
2022-08-17T13:24:07.781Z,94.40
2022-08-17T13:26:41.466Z,93.30
2022-08-17T13:29:28.398Z,94.00
2022-08-17T13:32:13.205Z,94.40
2022-08-17T13:35:08.974Z,92.60
2022-08-17T13:37:35.809Z,92.20
2022-08-17T13:40:08.312Z,92.40
2022-08-17T13:42:50.570Z,93.40
2022-08-17T13:45:36.562Z,93.30
2022-08-17T13:48:24.367Z,93.10
2022-08-17T13:50:57.236Z,93.00
2022-08-17T13:53:31.195Z,91.80
2022-08-17T13:56:07.399Z,92.20
2022-08-17T13:58:56.530Z,92.90
2022-08-17T14:01:53.533Z,92.70
2022-08-17T14:04:24.701Z,94.90
2022-08-17T14:07:12.908Z,93.50
2022-08-17T14:09:58.443Z,93.60
2022-08-17T14:12:28.178Z,93.00
2022-08-17T14:14:56.537Z,91.80
2022-08-17T14:17:25.086Z,93.50
2022-08-17T14:19:52.774Z,92.80
2022-08-17T14:22:25.738Z,92.60
2022-08-17T14:24:53.150Z,93.40
2022-08-17T14:27:20.766Z,92.00
2022-08-17T14:29:48.848Z,91.40
2022-08-17T14:32:31.547Z,91.40
2022-08-17T14:34:59.891Z,91.40
2022-08-17T14:37:28.898Z,91.40
2022-08-17T14:39:58.041Z,91.10
2022-08-17T14:42:27.815Z,91.20
2022-08-17T14:44:56.095Z,90.60
2022-08-17T14:47:23.247Z,91.20
2022-08-17T14:49:50.222Z,91.00
2022-08-17T14:52:21.634Z,91.20
2022-08-17T14:54:51.337Z,90.80
2022-08-17T14:57:33.237Z,91.10
2022-08-17T15:00:02.399Z,90.50
2022-08-17T15:02:30.873Z,90.70
2022-08-17T15:05:06.129Z,91.40
2022-08-17T15:07:38.838Z,92.00
2022-08-17T15:10:06.283Z,91.50
2022-08-17T15:12:34.478Z,91.80
2022-08-17T15:15:05.079Z,92.30
2022-08-17T15:17:43.758Z,91.80
2022-08-17T15:20:18.217Z,90.90
2022-08-17T15:22:49.468Z,90.90
2022-08-17T15:25:17.443Z,90.70
2022-08-17T15:27:44.496Z,91.30
2022-08-17T15:30:12.760Z,91.40
2022-08-17T15:32:51.377Z,91.10
2022-08-17T15:35:28.745Z,90.10
2022-08-17T15:38:09.870Z,89.90
2022-08-17T15:40:42.155Z,90.10
2022-08-17T15:43:11.781Z,88.20
2022-08-17T15:45:39.632Z,89.60
2022-08-17T15:48:07.069Z,90.20
2022-08-17T15:50:34.117Z,89.90
2022-08-17T15:53:02.365Z,90.80
2022-08-17T15:55:31.482Z,90.30
2022-08-17T15:57:59.190Z,90.50
2022-08-17T16:00:28.461Z,90.30
2022-08-17T16:03:45.757Z,90.70
2022-08-17T16:05:43.401Z,91.40
2022-08-17T16:08:11.202Z,90.70
2022-08-17T16:10:39.039Z,90.90
2022-08-17T16:13:06.109Z,90.90
2022-08-17T16:15:47.787Z,91.20
2022-08-17T16:18:31.096Z,91.90
2022-08-17T16:21:23.920Z,92.30
2022-08-17T16:23:56.264Z,92.10
2022-08-17T16:26:24.228Z,92.30
2022-08-17T16:28:52.193Z,92.90
2022-08-17T16:31:19.199Z,92.80
2022-08-17T16:34:01.027Z,93.10
2022-08-17T16:36:35.608Z,93.30
2022-08-17T16:39:02.550Z,93.30
2022-08-17T16:41:47.536Z,93.70
2022-08-17T16:44:19.578Z,94.00
2022-08-17T16:46:48.080Z,94.20
2022-08-17T16:49:35.795Z,94.70
2022-08-17T16:52:06.411Z,94.90
2022-08-17T16:54:33.511Z,95.30
2022-08-17T16:57:00.494Z,95.20
2022-08-17T16:59:31.063Z,95.40
2022-08-17T17:02:12.997Z,95.60
2022-08-17T17:04:57.878Z,96.20
2022-08-17T17:07:35.966Z,96.80
2022-08-17T17:10:10.589Z,97.50
2022-08-17T17:13:03.014Z,97.90
2022-08-17T17:15:30.373Z,99.00
2022-08-17T17:18:06.810Z,99.60
2022-08-17T17:20:53.934Z,99.90
2022-08-17T17:23:50.027Z,99.90
2022-08-17T17:26:17.111Z,99.90
2022-08-17T17:29:05.951Z,99.90
2022-08-17T17:31:39.572Z,99.90
2022-08-17T17:34:10.736Z,99.90
2022-08-17T17:36:54.078Z,99.90
2022-08-17T17:39:49.991Z,99.90
2022-08-17T17:42:21.739Z,99.90
2022-08-17T17:45:18.545Z,99.90
2022-08-17T17:47:45.776Z,99.90
2022-08-17T17:50:12.867Z,99.90
2022-08-17T17:52:52.087Z,99.90
2022-08-17T17:56:05.399Z,99.90
2022-08-17T17:59:16.769Z,99.90
2022-08-17T18:01:44.033Z,99.90
2022-08-17T18:04:36.502Z,99.90
2022-08-17T18:07:25.677Z,99.90
2022-08-17T18:10:30.237Z,99.90
2022-08-17T18:12:58.773Z,99.90
2022-08-17T18:15:53.495Z,99.90
2022-08-17T18:18:38.288Z,99.90
2022-08-17T18:21:15.631Z,99.90
2022-08-17T18:23:53.601Z,99.90
2022-08-17T18:26:41.820Z,99.90
2022-08-17T18:29:34.305Z,99.90
2022-08-17T18:32:28.620Z,99.90
2022-08-17T18:35:18.611Z,99.90
2022-08-17T18:37:47.495Z,99.90
2022-08-17T18:40:17.676Z,99.90
2022-08-17T18:43:24.668Z,99.90
2022-08-17T18:45:54.856Z,99.90
2022-08-17T18:48:33.138Z,99.90
2022-08-17T18:51:26.370Z,99.90
2022-08-17T18:54:28.149Z,99.90
2022-08-17T18:56:56.502Z,99.90
2022-08-17T18:59:27.091Z,99.90
2022-08-17T19:04:34.569Z,99.90
2022-08-17T19:07:06.858Z,99.90
2022-08-17T19:09:38.583Z,99.90
2022-08-17T19:12:26.914Z,99.90
2022-08-17T19:14:56.826Z,99.90
2022-08-17T19:17:38.042Z,99.90
2022-08-17T19:20:15.853Z,99.90
2022-08-17T19:22:50.011Z,99.90
2022-08-17T19:25:27.659Z,99.90
2022-08-17T19:27:58.130Z,99.90
2022-08-17T19:30:26.178Z,99.90
2022-08-17T19:32:54.510Z,99.90
2022-08-17T19:35:27.127Z,99.90
2022-08-17T19:38:12.986Z,99.90
2022-08-17T19:40:56.032Z,99.90
2022-08-17T19:43:25.972Z,99.90
2022-08-17T19:46:15.255Z,99.90
2022-08-17T19:49:15.251Z,99.90
2022-08-17T19:52:20.551Z,99.90
2022-08-17T19:55:00.558Z,99.90
2022-08-17T19:57:55.266Z,99.90
2022-08-17T20:00:22.695Z,99.90
2022-08-17T20:02:55.222Z,99.90
2022-08-17T20:05:24.044Z,99.90
2022-08-17T20:08:06.273Z,99.90
2022-08-17T20:10:58.618Z,99.90
2022-08-17T20:13:33.138Z,99.90
2022-08-17T20:16:02.265Z,99.90
2022-08-17T20:18:51.947Z,99.90
2022-08-17T20:21:45.323Z,99.90
2022-08-17T20:24:45.846Z,99.90
2022-08-17T20:27:17.812Z,99.90
2022-08-17T20:30:05.831Z,99.90
2022-08-17T20:32:48.895Z,99.90
2022-08-17T20:35:22.629Z,99.90
2022-08-17T20:38:13.052Z,99.90
2022-08-17T20:40:57.486Z,99.90
2022-08-17T20:43:32.981Z,99.90
2022-08-17T20:46:38.382Z,99.90
2022-08-17T20:49:14.921Z,99.90
2022-08-17T20:52:07.823Z,99.90
2022-08-17T20:54:57.229Z,99.90
2022-08-17T20:57:33.380Z,99.90
2022-08-17T21:00:16.590Z,99.90
2022-08-17T21:02:50.635Z,99.90
2022-08-17T21:06:00.712Z,99.90
2022-08-17T21:08:32.590Z,99.90
2022-08-17T21:11:20.800Z,99.90
2022-08-17T21:14:10.499Z,99.90
2022-08-17T21:16:41.387Z,99.90
2022-08-17T21:19:23.142Z,99.90
2022-08-17T21:22:01.781Z,99.90
2022-08-17T21:25:06.354Z,99.90
2022-08-17T21:27:50.195Z,99.90
2022-08-17T21:30:47.722Z,99.90
2022-08-17T21:33:18.817Z,99.90
2022-08-17T21:36:10.256Z,99.90
2022-08-17T21:38:57.772Z,99.90
2022-08-17T21:41:30.238Z,99.90
2022-08-17T21:44:21.640Z,99.90
2022-08-17T21:46:50.815Z,99.90
2022-08-17T21:49:21.282Z,99.90
2022-08-17T21:51:54.331Z,99.90
2022-08-17T21:54:36.988Z,99.90
2022-08-17T21:57:07.075Z,99.90
2022-08-17T21:59:38.174Z,99.90
2022-08-17T22:02:25.366Z,99.90
2022-08-17T22:05:00.096Z,99.90
2022-08-17T22:07:50.908Z,99.90
2022-08-17T22:10:40.994Z,99.90
2022-08-17T22:13:17.324Z,99.90
2022-08-17T22:15:51.178Z,99.90
2022-08-17T22:18:26.918Z,99.90
2022-08-17T22:20:56.628Z,99.90
2022-08-17T22:24:02.362Z,99.90
2022-08-17T22:27:02.588Z,99.90
2022-08-17T22:29:53.242Z,99.90
2022-08-17T22:32:38.565Z,99.90
2022-08-17T22:35:27.046Z,99.90
2022-08-17T22:37:54.182Z,99.90
2022-08-17T22:40:33.389Z,99.90
2022-08-17T22:43:03.614Z,99.90
2022-08-17T22:45:31.269Z,99.90
2022-08-17T22:48:02.180Z,99.90
2022-08-17T22:50:30.722Z,99.90
2022-08-17T22:53:50.088Z,99.90
2022-08-17T22:56:43.250Z,99.90
2022-08-17T22:59:21.108Z,99.90
2022-08-17T23:02:12.635Z,99.90
2022-08-17T23:04:44.079Z,99.90
2022-08-17T23:07:11.373Z,99.90
2022-08-17T23:09:38.962Z,99.90
2022-08-17T23:12:08.832Z,99.90
2022-08-17T23:14:39.292Z,99.90
2022-08-17T23:17:07.539Z,99.90
2022-08-17T23:19:35.394Z,99.90
2022-08-17T23:22:05.271Z,99.90
2022-08-17T23:24:39.352Z,99.90
2022-08-17T23:27:07.676Z,99.90
2022-08-17T23:29:39.313Z,99.90
2022-08-17T23:32:06.972Z,99.90
2022-08-17T23:34:33.950Z,99.90
2022-08-17T23:37:02.327Z,99.90
2022-08-17T23:39:29.415Z,99.90
2022-08-17T23:41:58.884Z,99.90
2022-08-17T23:44:27.111Z,99.90
2022-08-17T23:46:54.670Z,99.90
2022-08-17T23:49:21.738Z,99.90
2022-08-17T23:51:49.508Z,99.90
2022-08-17T23:54:28.311Z,99.90
2022-08-17T23:56:55.435Z,99.90
2022-08-17T23:59:23.393Z,99.90
